Time;durP1;ratioP1;P1;durP2;ratioP2;P2;SDS_P1;SDS_P2;PMS_P1;PMS_P2;Temp;Humidity;BMP_temperature;BMP_pressure;BME280_temperature;BME280_humidity;BME280_pressure;Samples;Min_cycle;Max_cycle;Signal;HPM_P1;HPM_P2
2022/11/22 00:01:06;;;;;;;118.90;36.00;;;;;;;-3.70;92.70;98966.16;105153;1284;1002218;-76
2022/11/22 00:03:54;;;;;;;105.70;31.70;;;;;;;-3.66;92.67;98962.36;105877;1292;57208;-75
2022/11/22 00:06:41;;;;;;;113.20;35.70;;;;;;;-3.62;92.59;98957.70;105881;1286;60641;-76
2022/11/22 00:09:29;;;;;;;105.10;30.40;;;;;;;-3.64;92.25;98955.52;105881;1293;71600;-75
2022/11/22 00:12:17;;;;;;;104.20;29.60;;;;;;;-3.61;92.85;98948.30;105897;1292;66317;-76
2022/11/22 00:15:06;;;;;;;81.40;25.50;;;;;;;-3.58;93.01;98940.73;105853;1292;72638;-76
2022/11/22 00:17:54;;;;;;;101.60;31.40;;;;;;;-3.56;92.61;98939.80;105867;1292;57909;-76
2022/11/22 00:20:42;;;;;;;117.80;34.10;;;;;;;-3.59;92.30;98950.14;105893;1285;58790;-76
2022/11/22 00:23:29;;;;;;;106.90;32.00;;;;;;;-3.59;92.55;98959.66;105851;1292;73848;-76
2022/11/22 00:26:17;;;;;;;109.10;32.70;;;;;;;-3.56;92.51;98963.04;105864;1292;68963;-75
2022/11/22 00:29:04;;;;;;;109.10;34.20;;;;;;;-3.54;92.39;98961.91;105852;1292;72279;-76
2022/11/22 00:31:52;;;;;;;98.30;30.80;;;;;;;-3.50;92.23;98961.05;105705;1292;57816;-76
2022/11/22 00:34:39;;;;;;;85.10;28.80;;;;;;;-3.48;92.23;98969.66;105159;1292;1002684;-75
2022/11/22 00:37:27;;;;;;;93.30;28.40;;;;;;;-3.47;92.30;98979.54;105880;1286;74122;-75
2022/11/22 00:40:15;;;;;;;79.10;26.30;;;;;;;-3.47;92.48;98978.28;105867;1292;68926;-76
2022/11/22 00:43:02;;;;;;;79.70;25.00;;;;;;;-3.45;92.37;98973.89;105883;1292;72347;-75
2022/11/22 00:45:50;;;;;;;84.90;28.90;;;;;;;-3.43;92.31;98973.45;105122;1288;1002578;-76
2022/11/22 00:48:38;;;;;;;68.20;22.50;;;;;;;-3.43;92.29;98970.32;105157;1284;1002259;-75
2022/11/22 00:51:25;;;;;;;94.40;29.10;;;;;;;-3.42;92.36;98966.83;105878;1284;72483;-76
2022/11/22 00:54:13;;;;;;;100.30;31.10;;;;;;;-3.39;92.41;98969.50;105749;1293;66410;-75
2022/11/22 00:57:00;;;;;;;97.40;31.00;;;;;;;-3.34;92.58;98968.81;105772;1288;72540;-76
2022/11/22 00:59:48;;;;;;;94.40;31.50;;;;;;;-3.29;92.46;98968.60;105889;1292;58873;-77
2022/11/22 01:02:35;;;;;;;91.80;30.10;;;;;;;-3.25;92.15;98963.94;105758;1295;60137;-76
2022/11/22 01:05:24;;;;;;;94.90;30.90;;;;;;;-3.21;92.21;98971.27;105740;1293;71752;-76
2022/11/22 01:08:12;;;;;;;93.50;30.20;;;;;;;-3.17;92.15;98976.49;104996;1292;1002449;-76
2022/11/22 01:11:00;;;;;;;88.60;29.10;;;;;;;-3.12;92.00;98977.15;105758;1285;72341;-78
2022/11/22 01:13:48;;;;;;;81.70;28.60;;;;;;;-3.06;92.20;98976.24;105623;1297;57764;-79
2022/11/22 01:16:35;;;;;;;63.20;21.50;;;;;;;-3.04;91.52;98967.96;105729;1292;58603;-78
2022/11/22 01:19:23;;;;;;;66.10;21.80;;;;;;;-3.03;91.52;98971.23;105738;1292;72771;-78
2022/11/22 01:22:10;;;;;;;79.20;24.60;;;;;;;-3.05;91.45;98973.60;104986;1295;1002815;-78
2022/11/22 01:24:58;;;;;;;85.50;27.10;;;;;;;-3.06;91.54;98980.20;105745;1295;72561;-75
2022/11/22 01:27:45;;;;;;;83.40;27.20;;;;;;;-3.06;91.73;98987.83;105614;1297;59866;-77
2022/11/22 01:30:33;;;;;;;92.20;31.70;;;;;;;-3.06;91.60;98987.48;105785;1296;61480;-76
2022/11/22 01:33:21;;;;;;;86.40;30.00;;;;;;;-3.03;91.86;98983.73;105592;1294;71511;-76
2022/11/22 01:36:08;;;;;;;85.80;28.50;;;;;;;-2.98;91.90;98981.46;105897;1285;67496;-75
2022/11/22 01:38:56;;;;;;;81.20;29.60;;;;;;;-2.94;91.72;98980.42;105743;1295;73460;-75
2022/11/22 01:41:44;;;;;;;82.30;29.20;;;;;;;-2.92;91.58;98976.02;105868;1291;57130;-76
2022/11/22 01:44:32;;;;;;;73.20;25.10;;;;;;;-2.89;91.53;98977.65;105903;1292;60300;-76
2022/11/22 01:47:24;;;;;;;62.20;20.70;;;;;;;-2.92;91.18;98980.36;105084;1293;1002938;-75
2022/11/22 01:50:16;;;;;;;68.20;23.90;;;;;;;-2.96;91.41;98976.52;105902;1292;68118;-75
2022/11/22 01:53:11;;;;;;;61.80;20.90;;;;;;;-2.99;91.58;98982.34;105712;1300;73757;-76
2022/11/22 01:56:03;;;;;;;76.00;25.20;;;;;;;-2.97;91.66;98983.86;105052;1292;1002201;-75
2022/11/22 01:58:58;;;;;;;82.90;26.10;;;;;;;-2.95;91.52;98987.41;105904;1292;58611;-75
2022/11/22 02:01:47;;;;;;;97.20;29.50;;;;;;;-2.93;91.44;98983.34;105889;1292;72960;-75
2022/11/22 02:04:36;;;;;;;90.80;28.90;;;;;;;-2.91;91.67;98982.20;105754;1294;67754;-75
2022/11/22 02:07:32;;;;;;;91.20;28.30;;;;;;;-2.86;91.47;98984.46;105854;1292;73822;-76
2022/11/22 02:10:24;;;;;;;91.10;28.90;;;;;;;-2.83;91.36;98987.14;105753;1292;57277;-75
2022/11/22 02:13:13;;;;;;;76.90;25.10;;;;;;;-2.80;91.18;98982.48;105734;1292;59183;-76
2022/11/22 02:16:01;;;;;;;84.10;25.40;;;;;;;-2.79;91.25;98976.52;105854;1285;74102;-76
2022/11/22 02:18:49;;;;;;;82.00;28.50;;;;;;;-2.79;91.11;98974.11;105882;1292;68638;-75
2022/11/22 02:21:36;;;;;;;81.00;26.60;;;;;;;-2.79;91.12;98974.09;105872;1290;72456;-76
2022/11/22 02:24:37;;;;;;;80.10;24.00;;;;;;;-2.76;91.34;98981.45;105868;1292;58110;-75
2022/11/22 02:27:25;;;;;;;74.00;21.60;;;;;;;-2.74;91.52;98984.48;105769;1292;61129;-75
2022/11/22 02:30:13;;;;;;;97.50;29.50;;;;;;;-2.72;91.61;98989.80;105858;1292;73030;-76
2022/11/22 02:33:01;;;;;;;103.90;32.40;;;;;;;-2.68;91.57;98991.54;105147;1292;1002111;-76
2022/11/22 02:35:49;;;;;;;105.40;31.90;;;;;;;-2.62;91.44;98989.58;105723;1292;71778;-75
2022/11/22 02:38:36;;;;;;;92.00;30.30;;;;;;;-2.57;91.36;98992.66;105129;1292;1002281;-75
2022/11/22 02:41:25;;;;;;;100.50;31.80;;;;;;;-2.50;91.32;98995.00;105863;1300;60131;-78
2022/11/22 02:44:14;;;;;;;91.20;29.20;;;;;;;-2.43;91.20;98995.23;105885;1291;73015;-78
2022/11/22 02:47:02;;;;;;;63.40;21.30;;;;;;;-2.43;90.72;98997.83;105770;1287;69084;-78
2022/11/22 02:49:52;;;;;;;82.90;27.70;;;;;;;-2.45;90.78;98996.00;105698;1292;71465;-76
2022/11/22 02:52:39;;;;;;;80.50;28.20;;;;;;;-2.48;90.88;98991.08;105764;1294;57251;-77
2022/11/22 02:55:27;;;;;;;81.40;28.00;;;;;;;-2.49;91.28;98991.99;105905;1287;58834;-76
2022/11/22 02:58:15;;;;;;;98.20;32.00;;;;;;;-2.49;91.15;98993.38;105910;1292;72031;-76
2022/11/22 03:01:03;;;;;;;84.90;26.50;;;;;;;-2.47;91.22;99000.42;105876;1292;66266;-77
2022/11/22 03:03:51;;;;;;;93.30;32.30;;;;;;;-2.46;91.41;98997.41;105735;1284;72487;-78
2022/11/22 03:06:38;;;;;;;94.90;32.40;;;;;;;-2.42;91.42;98998.11;105877;1295;58534;-77
2022/11/22 03:09:26;;;;;;;97.00;32.50;;;;;;;-2.35;91.18;98999.95;105876;1292;57946;-77
2022/11/22 03:12:14;;;;;;;90.00;31.60;;;;;;;-2.30;91.23;98996.77;105894;1295;72731;-77
2022/11/22 03:15:02;;;;;;;66.70;23.90;;;;;;;-2.27;91.21;98991.42;105872;1292;69228;-75
2022/11/22 03:18:02;;;;;;;76.70;26.50;;;;;;;-2.26;91.10;98992.09;105672;1298;73856;-75
2022/11/22 03:20:49;;;;;;;64.50;23.30;;;;;;;-2.25;91.29;98988.02;105772;1287;57157;-76
2022/11/22 03:23:37;;;;;;;81.60;27.60;;;;;;;-2.23;91.18;98981.52;105768;1284;58231;-78
2022/11/22 03:26:24;;;;;;;76.80;25.90;;;;;;;-2.18;91.34;98980.11;105895;1292;72973;-77
2022/11/22 03:29:12;;;;;;;95.10;33.10;;;;;;;-2.13;91.49;98973.98;105000;1285;1002387;-75
2022/11/22 03:31:59;;;;;;;102.10;33.10;;;;;;;-2.08;91.19;98971.16;104998;1286;1002187;-75
2022/11/22 03:34:47;;;;;;;92.40;31.00;;;;;;;-2.03;91.21;98968.52;105107;1292;1002735;-75
2022/11/22 03:37:35;;;;;;;96.70;35.80;;;;;;;-1.98;90.94;98965.20;104954;1296;1002248;-75
2022/11/22 03:40:23;;;;;;;98.50;33.70;;;;;;;-1.93;91.07;98962.70;105737;1288;73866;-76
2022/11/22 03:43:12;;;;;;;96.70;34.30;;;;;;;-1.86;90.93;98963.07;105624;1292;65376;-77
2022/11/22 03:46:00;;;;;;;94.10;34.30;;;;;;;-1.81;90.60;98962.51;105764;1295;71340;-77
2022/11/22 03:48:48;;;;;;;95.80;33.90;;;;;;;-1.77;90.59;98958.84;104966;1292;1002390;-76
2022/11/22 03:51:36;;;;;;;86.30;32.10;;;;;;;-1.75;90.57;98964.31;105765;1284;60098;-76
2022/11/22 03:54:23;;;;;;;85.30;32.10;;;;;;;-1.74;90.65;98960.27;105760;1294;71456;-78
2022/11/22 03:57:11;;;;;;;95.20;34.00;;;;;;;-1.75;90.39;98967.83;105698;1295;66203;-79
2022/11/22 03:59:58;;;;;;;85.00;33.30;;;;;;;-1.78;90.44;98967.94;105738;1299;71337;-80
2022/11/22 04:02:45;;;;;;;87.90;32.40;;;;;;;-1.78;90.66;98964.64;105700;1292;57311;-76
2022/11/22 04:05:33;;;;;;;85.60;33.80;;;;;;;-1.78;90.64;98965.84;105888;1292;60386;-76
2022/11/22 04:08:20;;;;;;;78.20;27.50;;;;;;;-1.76;90.67;98967.69;105671;1297;73811;-75
2022/11/22 04:11:08;;;;;;;98.80;34.60;;;;;;;-1.77;90.69;98973.30;105756;1295;67741;-75
2022/11/22 04:17:02;;;;;;;73.80;28.20;;;;;;;-1.70;90.87;98978.90;105896;1292;57085;-76
2022/11/22 04:21:32;;;;;;;77.70;27.10;;;;;;;-1.70;90.83;98981.70;104996;1290;1002196;-77
2022/11/22 04:23:10;;;;;;;83.60;30.40;;;;;;;-1.73;90.92;98978.14;105884;1292;71385;-77
2022/11/22 04:25:57;;;;;;;96.20;36.10;;;;;;;-1.73;90.91;98979.16;105767;1288;67815;-76
2022/11/22 04:28:45;;;;;;;87.20;33.30;;;;;;;-1.69;91.00;98980.39;105742;1292;72432;-76
2022/11/22 04:34:58;;;;;;;95.80;34.10;;;;;;;-1.69;90.93;98963.54;105780;1295;60523;-76
2022/11/22 04:37:50;;;;;;;96.40;36.10;;;;;;;-1.66;90.92;98958.03;105883;1291;72455;-76
2022/11/22 04:40:38;;;;;;;94.20;36.60;;;;;;;-1.63;91.06;98953.18;105776;1295;67927;-76
2022/11/22 04:46:34;;;;;;;89.80;33.10;;;;;;;-1.58;90.69;98954.88;105814;1288;57266;-76
2022/11/22 04:49:22;;;;;;;80.80;31.50;;;;;;;-1.56;91.09;98962.63;105812;1292;61644;-76
2022/11/22 04:55:15;;;;;;;87.70;31.90;;;;;;;-1.61;90.81;98963.70;105939;1285;66566;-75
2022/11/22 04:58:03;;;;;;;86.10;33.30;;;;;;;-1.62;91.12;98962.71;105850;1288;72573;-75
2022/11/22 05:00:51;;;;;;;87.80;32.20;;;;;;;-1.61;90.90;98969.46;105819;1291;59978;-75
2022/11/22 05:03:39;;;;;;;83.80;33.70;;;;;;;-1.60;90.90;98979.48;105879;1291;60202;-77
2022/11/22 05:06:26;;;;;;;84.00;31.40;;;;;;;-1.57;90.94;98983.70;105893;1292;73095;-77
2022/11/22 05:09:14;;;;;;;85.60;32.80;;;;;;;-1.54;90.88;98981.66;105868;1295;66648;-76
2022/11/22 05:12:01;;;;;;;81.00;32.40;;;;;;;-1.52;91.06;98984.89;105838;1292;72688;-75
2022/11/22 05:14:48;;;;;;;64.70;25.80;;;;;;;-1.53;90.81;98989.09;105740;1284;57228;-76
2022/11/22 05:17:37;;;;;;;83.20;31.10;;;;;;;-1.57;90.92;98996.73;105722;1290;60455;-76
2022/11/22 05:20:25;;;;;;;76.70;29.50;;;;;;;-1.59;91.22;98997.00;105852;1298;71866;-74
2022/11/22 05:26:28;;;;;;;96.00;36.20;;;;;;;-1.56;91.40;98984.86;105005;1292;1002034;-75
2022/11/22 05:29:15;;;;;;;90.10;35.70;;;;;;;-1.54;91.24;98987.22;105724;1292;58918;-77
2022/11/22 05:32:03;;;;;;;102.40;36.80;;;;;;;-1.50;91.30;98986.54;105842;1292;61568;-76
2022/11/22 05:34:51;;;;;;;92.10;35.60;;;;;;;-1.48;91.13;98989.06;105684;1294;74569;-77
2022/11/22 05:37:38;;;;;;;84.60;31.90;;;;;;;-1.48;91.17;98986.95;105722;1292;66268;-76
2022/11/22 05:40:25;;;;;;;85.00;32.80;;;;;;;-1.44;91.58;98989.90;105854;1291;73456;-76
2022/11/22 05:43:13;;;;;;;88.50;32.40;;;;;;;-1.40;91.70;98990.06;105851;1292;57288;-77
2022/11/22 05:46:18;;;;;;;87.50;33.30;;;;;;;-1.37;91.43;98990.27;104990;1285;1002867;-76
2022/11/22 05:49:12;;;;;;;83.80;31.00;;;;;;;-1.32;91.23;98993.05;105882;1291;72930;-76
2022/11/22 05:52:00;;;;;;;86.30;32.60;;;;;;;-1.34;90.94;98997.46;105826;1286;66688;-76
2022/11/22 05:54:47;;;;;;;101.10;35.80;;;;;;;-1.34;91.10;98997.45;105833;1294;73686;-75
2022/11/22 05:57:35;;;;;;;101.30;35.80;;;;;;;-1.34;90.92;99000.40;105849;1292;58723;-76
2022/11/22 06:00:22;;;;;;;97.20;36.40;;;;;;;-1.32;91.14;99013.05;105856;1294;60367;-75
2022/11/22 06:03:10;;;;;;;111.80;36.70;;;;;;;-1.32;91.18;99019.32;105728;1293;73151;-76
2022/11/22 06:05:57;;;;;;;96.00;35.90;;;;;;;-1.31;91.36;99009.31;105869;1291;67878;-75
2022/11/22 06:08:47;;;;;;;103.30;36.70;;;;;;;-1.27;91.85;99003.94;105732;1289;72678;-76
2022/11/22 06:11:35;;;;;;;79.50;30.00;;;;;;;-1.24;91.73;99003.94;105830;1292;57328;-76
2022/11/22 06:14:22;;;;;;;102.60;34.60;;;;;;;-1.25;91.59;99002.92;105874;1292;58093;-76
2022/11/22 06:17:10;;;;;;;107.30;35.00;;;;;;;-1.26;91.68;99004.55;105845;1294;73080;-76
2022/11/22 06:19:57;;;;;;;108.00;35.50;;;;;;;-1.27;91.96;99000.45;105832;1285;67854;-76
2022/11/22 06:22:52;;;;;;;118.70;38.20;;;;;;;-1.28;92.30;99002.60;105806;1291;72510;-77
2022/11/22 06:25:39;;;;;;;105.40;35.60;;;;;;;-1.25;92.44;99011.85;105831;1291;58095;-77
2022/11/22 06:28:29;;;;;;;114.10;36.70;;;;;;;-1.22;92.63;99012.77;105844;1285;58960;-76
2022/11/22 06:31:20;;;;;;;123.00;36.00;;;;;;;-1.21;92.84;99019.33;105845;1294;72848;-77
2022/11/22 06:34:11;;;;;;;113.10;35.80;;;;;;;-1.22;93.05;99032.92;105970;1291;69354;-76
2022/11/22 06:36:59;;;;;;;113.70;33.30;;;;;;;-1.27;93.81;99034.74;105927;1298;72041;-76
2022/11/22 06:39:46;;;;;;;118.70;36.20;;;;;;;-1.29;93.89;99040.23;105911;1292;57240;-77
2022/11/22 06:42:34;;;;;;;122.70;35.80;;;;;;;-1.30;94.15;99043.55;105852;1284;61510;-76
2022/11/22 06:45:21;;;;;;;126.80;37.50;;;;;;;-1.28;94.20;99055.49;105847;1285;73145;-76
2022/11/22 06:48:09;;;;;;;130.30;37.10;;;;;;;-1.27;94.15;99061.54;105853;1292;67995;-76
2022/11/22 06:50:58;;;;;;;134.50;37.60;;;;;;;-1.27;94.45;99060.31;105833;1292;71990;-76
2022/11/22 06:53:48;;;;;;;126.50;38.60;;;;;;;-1.24;94.39;99058.80;105849;1286;58251;-75
2022/11/22 06:56:39;;;;;;;119.40;36.40;;;;;;;-1.23;94.85;99057.86;105845;1299;60489;-75
2022/11/22 06:59:26;;;;;;;130.50;39.00;;;;;;;-1.22;94.87;99058.88;105762;1295;73989;-76
2022/11/22 07:02:14;;;;;;;130.50;39.20;;;;;;;-1.23;95.06;99055.26;105845;1291;68917;-77
2022/11/22 07:05:02;;;;;;;130.80;39.30;;;;;;;-1.24;94.76;99055.65;105839;1292;72418;-77
2022/11/22 07:08:09;;;;;;;133.00;37.80;;;;;;;-1.23;95.01;99062.40;105722;1295;57260;-76
2022/11/22 07:11:14;;;;;;;127.20;35.90;;;;;;;-1.19;95.08;99062.42;105839;1296;60326;-77
2022/11/22 07:14:03;;;;;;;124.40;38.10;;;;;;;-1.16;95.09;99054.61;105696;1293;71444;-77
2022/11/22 07:16:55;;;;;;;123.50;36.30;;;;;;;-1.13;94.98;99060.90;105814;1292;65827;-76
2022/11/22 07:19:43;;;;;;;131.40;37.30;;;;;;;-1.09;94.85;99068.55;105823;1292;73290;-76
2022/11/22 07:22:30;;;;;;;130.60;39.30;;;;;;;-1.04;94.81;99067.61;105847;1292;57292;-77
2022/11/22 07:25:18;;;;;;;127.80;39.00;;;;;;;-1.00;94.82;99065.54;105862;1288;59141;-79
2022/11/22 07:28:06;;;;;;;116.30;36.30;;;;;;;-0.98;95.04;99066.85;105854;1292;74118;-76
2022/11/22 07:31:03;;;;;;;124.50;37.80;;;;;;;-0.98;95.12;99063.17;105854;1298;67265;-76
2022/11/22 07:33:51;;;;;;;119.20;34.70;;;;;;;-1.00;95.24;99057.38;104259;1295;1002549;-76
2022/11/22 07:36:38;;;;;;;138.20;41.00;;;;;;;-1.01;95.24;99063.52;105820;1287;57391;-76
2022/11/22 07:39:26;;;;;;;123.70;39.50;;;;;;;-1.01;95.75;99072.75;105837;1295;60120;-77
2022/11/22 07:42:14;;;;;;;142.00;41.00;;;;;;;-1.01;95.88;99072.54;105867;1292;72451;-76
2022/11/22 07:45:03;;;;;;;127.90;37.30;;;;;;;-0.98;95.84;99075.37;105711;1292;67022;-77
2022/11/22 07:47:51;;;;;;;138.00;40.30;;;;;;;-0.94;96.02;99075.00;105852;1298;73682;-76
2022/11/22 07:50:40;;;;;;;118.90;36.20;;;;;;;-0.90;95.77;99084.92;105855;1292;57454;-76
2022/11/22 07:53:27;;;;;;;112.10;36.00;;;;;;;-0.87;96.08;99091.58;105850;1290;60373;-77
2022/11/22 07:56:16;;;;;;;128.40;39.70;;;;;;;-0.82;95.97;99091.55;105831;1292;73976;-76
2022/11/22 07:59:05;;;;;;;129.70;41.10;;;;;;;-0.81;95.78;99092.54;105849;1295;66400;-76
2022/11/22 08:01:52;;;;;;;141.30;40.50;;;;;;;-0.78;95.85;99089.95;105829;1298;73864;-77
2022/11/22 08:04:40;;;;;;;116.30;36.60;;;;;;;-0.75;96.00;99094.19;105694;1300;59582;-75
2022/11/22 08:07:28;;;;;;;127.00;36.60;;;;;;;-0.74;95.78;99088.05;105848;1292;59684;-76
2022/11/22 08:10:16;;;;;;;121.50;38.70;;;;;;;-0.70;95.85;99085.59;105852;1292;74207;-76
2022/11/22 08:13:04;;;;;;;106.20;35.50;;;;;;;-0.65;95.97;99082.92;105112;1295;1002780;-77
2022/11/22 08:15:53;;;;;;;125.50;37.80;;;;;;;-0.64;95.62;99084.43;105844;1293;72835;-75
2022/11/22 08:18:47;;;;;;;124.10;39.30;;;;;;;-0.61;95.73;99090.90;105115;1291;1002227;-75
2022/11/22 08:21:35;;;;;;;115.00;35.80;;;;;;;-0.58;95.57;99100.70;105826;1293;60302;-77
2022/11/22 08:24:24;;;;;;;115.80;38.30;;;;;;;-0.57;95.68;99107.45;105837;1295;70445;-76
2022/11/22 08:27:12;;;;;;;111.40;35.60;;;;;;;-0.58;95.82;99108.73;105838;1292;67929;-75
2022/11/22 08:29:59;;;;;;;120.90;38.70;;;;;;;-0.60;95.75;99108.45;105842;1295;73959;-78
2022/11/22 08:32:47;;;;;;;95.80;32.70;;;;;;;-0.60;95.84;99108.30;105835;1298;59314;-76
2022/11/22 08:35:35;;;;;;;115.60;38.20;;;;;;;-0.60;95.93;99102.87;104363;1294;1002534;-76
2022/11/22 08:38:22;;;;;;;113.20;37.00;;;;;;;-0.57;95.92;99105.54;105812;1291;72681;-76
2022/11/22 08:41:10;;;;;;;109.10;34.90;;;;;;;-0.55;95.78;99109.80;105837;1291;69022;-76
2022/11/22 08:43:58;;;;;;;118.40;37.50;;;;;;;-0.53;95.83;99112.98;105856;1293;72631;-75
2022/11/22 08:46:46;;;;;;;112.00;36.50;;;;;;;-0.48;95.75;99111.92;105716;1287;58282;-77
2022/11/22 08:49:34;;;;;;;107.50;36.70;;;;;;;-0.50;95.44;99110.95;105836;1296;61277;-76
2022/11/22 08:52:21;;;;;;;115.40;37.40;;;;;;;-0.52;95.72;99112.27;105704;1295;74311;-76
2022/11/22 08:55:09;;;;;;;117.30;37.20;;;;;;;-0.58;95.73;99104.34;105836;1292;67904;-78
2022/11/22 08:57:59;;;;;;;110.90;35.60;;;;;;;-0.60;95.90;99103.55;105850;1290;73857;-75
2022/11/22 09:00:46;;;;;;;111.70;35.70;;;;;;;-0.56;96.08;99107.23;105866;1287;59876;-76
2022/11/22 09:03:35;;;;;;;110.90;35.00;;;;;;;-0.49;96.19;99108.98;105849;1292;61119;-76
2022/11/22 09:06:22;;;;;;;114.10;35.50;;;;;;;-0.44;95.94;99101.62;105868;1294;71331;-76
2022/11/22 09:09:31;;;;;;;115.90;35.30;;;;;;;-0.38;95.78;99101.30;105882;1290;68031;-78
2022/11/22 09:12:26;;;;;;;81.30;26.20;;;;;;;-0.36;95.33;99094.25;105727;1295;73511;-77
2022/11/22 09:15:14;;;;;;;108.70;35.20;;;;;;;-0.36;95.09;99093.23;105720;1302;59905;-76
2022/11/22 09:18:02;;;;;;;112.10;35.50;;;;;;;-0.41;95.19;99090.83;105834;1287;61149;-76
2022/11/22 09:20:58;;;;;;;95.20;31.20;;;;;;;-0.42;95.18;99095.25;105129;1285;1002527;-77
2022/11/22 09:23:48;;;;;;;102.20;32.60;;;;;;;-0.45;94.89;99097.83;105840;1291;66499;-76
2022/11/22 09:26:36;;;;;;;103.60;31.80;;;;;;;-0.41;94.96;99109.30;105851;1292;72424;-77
2022/11/22 09:29:25;;;;;;;92.00;30.40;;;;;;;-0.35;95.05;99113.56;105842;1290;57315;-75
2022/11/22 09:32:12;;;;;;;97.90;30.70;;;;;;;-0.28;94.71;99111.65;105855;1299;60346;-75
2022/11/22 09:34:59;;;;;;;98.10;32.00;;;;;;;-0.23;94.54;99108.08;105840;1292;73284;-76
2022/11/22 09:37:47;;;;;;;97.10;31.90;;;;;;;-0.13;94.12;99112.17;105869;1291;67782;-74
2022/11/22 09:40:35;;;;;;;98.10;31.90;;;;;;;-0.06;93.47;99112.15;105853;1290;72685;-76
2022/11/22 09:44:29;;;;;;;82.00;28.60;;;;;;;0.02;93.07;99118.23;105853;1292;57372;-75
2022/11/22 09:47:52;;;;;;;78.90;26.10;;;;;;;0.12;93.08;99121.40;105229;1300;60461;-76
2022/11/22 09:51:08;;;;;;;75.50;25.50;;;;;;;0.12;91.82;99118.42;105214;1301;74281;-77
2022/11/22 09:54:14;;;;;;;81.00;28.50;;;;;;;0.10;91.76;99117.13;104491;1299;1002605;-76
2022/11/22 09:57:08;;;;;;;80.80;28.10;;;;;;;-0.02;90.78;99113.69;105191;1301;71526;-77
2022/11/22 10:00:26;;;;;;;82.10;28.10;;;;;;;-0.07;91.26;99114.98;105192;1301;57342;-75
2022/11/22 10:03:39;;;;;;;67.30;23.30;;;;;;;-0.06;91.50;99108.84;105209;1299;61339;-76
2022/11/22 10:06:42;;;;;;;78.40;26.30;;;;;;;-0.07;90.69;99109.40;105226;1293;71724;-77
2022/11/22 10:09:57;;;;;;;75.10;26.80;;;;;;;-0.09;91.03;99109.52;105140;1305;68128;-77
2022/11/22 10:12:55;;;;;;;78.60;26.10;;;;;;;-0.12;90.85;99102.35;105222;1301;71119;-76
2022/11/22 10:16:02;;;;;;;77.90;28.00;;;;;;;-0.14;90.92;99100.16;105221;1300;58511;-75
2022/11/22 10:18:59;;;;;;;79.20;27.50;;;;;;;-0.11;90.90;99101.95;105122;1301;61572;-76
2022/11/22 10:21:47;;;;;;;76.60;28.10;;;;;;;-0.10;91.08;99098.57;105319;1302;72988;-77
2022/11/22 10:24:35;;;;;;;84.20;27.70;;;;;;;-0.12;90.95;99091.73;105868;1290;66566;-77
2022/11/22 10:27:22;;;;;;;68.70;23.70;;;;;;;-0.14;90.86;99088.67;105856;1289;71433;-75
2022/11/22 10:30:19;;;;;;;78.20;27.10;;;;;;;-0.17;90.78;99095.59;105861;1295;59635;-76
2022/11/22 10:33:17;;;;;;;73.40;26.40;;;;;;;-0.21;90.95;99102.94;105719;1294;60093;-76
2022/11/22 10:36:17;;;;;;;73.70;26.90;;;;;;;-0.24;90.97;99102.75;105747;1294;73145;-76
2022/11/22 10:39:26;;;;;;;61.80;23.00;;;;;;;-0.29;90.86;99098.09;105855;1298;67598;-77
2022/11/22 10:43:01;;;;;;;66.60;23.80;;;;;;;-0.27;90.97;99095.58;105828;1294;72739;-75
2022/11/22 10:46:14;;;;;;;67.90;25.40;;;;;;;-0.27;90.84;99093.64;105859;1298;59654;-78
2022/11/22 10:49:25;;;;;;;62.30;21.70;;;;;;;-0.21;90.78;99092.32;105759;1294;61407;-75
2022/11/22 10:52:16;;;;;;;61.40;20.10;;;;;;;-0.23;89.53;99096.75;105862;1291;74150;-77
2022/11/22 10:55:47;;;;;;;57.50;21.60;;;;;;;-0.25;89.31;99097.05;105874;1291;67808;-75
2022/11/22 10:59:19;;;;;;;48.20;19.40;;;;;;;-0.29;88.59;99108.42;105857;1295;73502;-77
2022/11/22 11:02:36;;;;;;;57.20;19.90;;;;;;;-0.30;88.30;99113.33;105133;1299;1002504;-75
2022/11/22 11:05:38;;;;;;;49.80;19.00;;;;;;;-0.30;88.26;99111.23;105849;1287;61361;-75
2022/11/22 11:09:17;;;;;;;50.20;18.10;;;;;;;-0.31;87.65;99112.14;105872;1287;74000;-77
2022/11/22 11:12:48;;;;;;;51.80;18.60;;;;;;;-0.23;87.51;99115.23;105807;1291;67984;-76
2022/11/22 11:15:45;;;;;;;48.50;16.60;;;;;;;-0.14;87.12;99111.48;105670;1300;73720;-77
2022/11/22 11:18:50;;;;;;;46.80;18.10;;;;;;;-0.07;86.73;99095.81;105749;1296;57384;-75
2022/11/22 11:21:38;;;;;;;55.80;20.80;;;;;;;-0.05;86.03;99093.59;105735;1292;61389;-76
2022/11/22 11:24:29;;;;;;;44.90;16.80;;;;;;;-0.02;85.74;99090.98;105125;1299;1002947;-76
2022/11/22 11:27:20;;;;;;;52.00;18.70;;;;;;;-0.02;85.42;99087.53;105838;1295;67803;-77
2022/11/22 11:30:10;;;;;;;49.90;18.10;;;;;;;0.05;85.59;99077.44;105876;1295;72604;-78
2022/11/22 11:32:58;;;;;;;50.60;18.80;;;;;;;0.11;85.57;99076.27;105729;1300;57171;-78
2022/11/22 11:35:46;;;;;;;50.60;19.20;;;;;;;0.14;85.26;99078.38;105867;1291;61410;-78
2022/11/22 11:38:41;;;;;;;48.60;17.50;;;;;;;0.14;85.20;99081.83;104992;1294;1002323;-76
2022/11/22 11:41:32;;;;;;;52.10;20.30;;;;;;;0.12;84.90;99082.27;105877;1290;66109;-76
2022/11/22 11:44:30;;;;;;;44.70;15.60;;;;;;;0.08;84.93;99078.83;105829;1291;72614;-77
2022/11/22 11:47:32;;;;;;;52.40;19.70;;;;;;;0.09;85.24;99080.90;105727;1300;58281;-76
2022/11/22 11:50:27;;;;;;;53.80;20.10;;;;;;;0.04;85.32;99077.67;105862;1296;60004;-77
2022/11/22 11:53:26;;;;;;;53.10;19.40;;;;;;;-0.01;85.39;99071.27;105691;1298;73886;-76
2022/11/22 11:56:30;;;;;;;52.60;20.80;;;;;;;0.00;85.70;99073.84;105732;1294;66316;-75
2022/11/22 11:59:27;;;;;;;47.00;16.80;;;;;;;-0.02;85.59;99076.55;105856;1292;73707;-76
2022/11/22 12:02:21;;;;;;;50.60;18.80;;;;;;;-0.05;85.78;99079.85;105733;1295;57202;-77
2022/11/22 12:05:12;;;;;;;47.70;17.60;;;;;;;-0.09;86.00;99081.27;104996;1293;1002995;-77
2022/11/22 12:08:00;;;;;;;52.40;19.10;;;;;;;-0.14;86.16;99077.49;105846;1291;73249;-75
2022/11/22 12:11:20;;;;;;;56.10;20.30;;;;;;;-0.16;86.59;99073.77;105830;1292;69150;-77
2022/11/22 12:14:12;;;;;;;59.80;22.50;;;;;;;-0.17;86.73;99075.73;105731;1291;72636;-78
2022/11/22 12:17:23;;;;;;;50.10;19.10;;;;;;;-0.25;87.18;99084.67;105749;1293;57307;-77
2022/11/22 12:20:20;;;;;;;64.40;21.90;;;;;;;-0.27;86.88;99086.48;105845;1291;60190;-75
2022/11/22 12:23:50;;;;;;;60.40;21.70;;;;;;;-0.29;87.08;99085.37;105715;1295;72764;-78
2022/11/22 12:26:38;;;;;;;63.20;21.50;;;;;;;-0.28;87.28;99079.40;105735;1292;68087;-76
2022/11/22 12:29:26;;;;;;;61.00;22.10;;;;;;;-0.26;87.42;99086.29;105820;1288;71941;-77
2022/11/22 12:32:54;;;;;;;55.70;20.70;;;;;;;-0.29;87.52;99085.73;105817;1298;59553;-77
2022/11/22 12:35:44;;;;;;;61.90;22.80;;;;;;;-0.29;87.71;99094.11;105821;1290;61150;-77
2022/11/22 12:38:40;;;;;;;62.00;24.40;;;;;;;-0.36;87.91;99097.55;105881;1293;72956;-76
2022/11/22 12:41:32;;;;;;;62.00;23.20;;;;;;;-0.37;88.18;99099.52;105731;1296;68242;-77
2022/11/22 12:44:20;;;;;;;64.90;23.80;;;;;;;-0.35;88.04;99107.45;105857;1295;72467;-76
2022/11/22 12:47:15;;;;;;;58.70;21.60;;;;;;;-0.31;87.99;99104.69;105839;1298;58495;-76
2022/11/22 12:50:35;;;;;;;57.90;22.60;;;;;;;-0.26;88.00;99109.63;105718;1295;60737;-78
2022/11/22 12:53:40;;;;;;;55.40;22.70;;;;;;;-0.24;87.76;99110.43;105751;1295;74201;-76
2022/11/22 12:56:40;;;;;;;61.70;23.20;;;;;;;-0.26;87.80;99111.76;105750;1295;66860;-76
2022/11/22 12:59:49;;;;;;;64.70;22.60;;;;;;;-0.29;87.57;99115.56;105718;1296;73403;-76
2022/11/22 13:03:21;;;;;;;64.30;23.90;;;;;;;-0.30;87.87;99125.70;105844;1292;58736;-76
2022/11/22 13:06:10;;;;;;;55.70;20.80;;;;;;;-0.30;88.11;99125.17;105105;1292;1002385;-76
2022/11/22 13:09:04;;;;;;;65.70;21.60;;;;;;;-0.28;88.08;99121.08;105839;1291;71678;-79
2022/11/22 13:12:25;;;;;;;63.00;23.40;;;;;;;-0.30;88.02;99119.75;105732;1284;67779;-75
2022/11/22 13:15:27;;;;;;;56.00;21.60;;;;;;;-0.30;87.91;99106.52;105146;1301;72567;-76